createdAt,value
2023-01-13T00:00:16.561Z,89619.03
2023-01-13T00:02:43.568Z,89616.69
2023-01-13T00:05:10.731Z,89617.69
2023-01-13T00:07:37.878Z,89619.31
2023-01-13T00:10:05.519Z,89620.16
2023-01-13T00:12:32.467Z,89622.75
2023-01-13T00:14:59.418Z,89617.34
2023-01-13T00:17:26.428Z,89625.44
2023-01-13T00:19:53.218Z,89617.88
2023-01-13T00:22:20.114Z,89619.38
2023-01-13T00:24:47.022Z,89619.00
2023-01-13T00:27:14.101Z,89622.38
2023-01-13T00:29:40.982Z,89618.06
2023-01-13T00:32:08.024Z,89624.69
2023-01-13T00:34:34.984Z,89625.00
2023-01-13T00:37:01.896Z,89614.41
2023-01-13T00:39:28.828Z,89608.25
2023-01-13T00:41:55.719Z,89606.63
2023-01-13T00:44:22.638Z,89609.91
2023-01-13T00:46:49.567Z,89602.94
2023-01-13T00:49:16.537Z,89606.88
2023-01-13T00:51:43.363Z,89603.66
2023-01-13T00:54:10.384Z,89594.16
2023-01-13T00:56:40.461Z,89595.84
2023-01-13T00:59:12.093Z,89598.72
2023-01-13T01:01:39.128Z,89596.06
2023-01-13T01:04:06.198Z,89592.91
2023-01-13T01:06:33.067Z,89598.31
2023-01-13T01:09:00.009Z,89594.63
2023-01-13T01:11:30.213Z,89587.66
2023-01-13T01:13:59.506Z,89593.56
2023-01-13T01:16:29.792Z,89593.75
2023-01-13T01:18:57.141Z,89588.84
2023-01-13T01:21:26.023Z,89589.00
2023-01-13T01:23:53.711Z,89583.88
2023-01-13T01:26:26.057Z,89583.72
2023-01-13T01:28:53.207Z,89585.72
2023-01-13T01:31:27.003Z,89580.66
2023-01-13T01:33:54.801Z,89591.50
2023-01-13T01:36:23.461Z,89586.03
2023-01-13T01:38:50.556Z,89589.81
2023-01-13T01:41:23.879Z,89571.41
2023-01-13T01:43:59.949Z,89577.31
2023-01-13T01:46:48.356Z,89570.91
2023-01-13T01:49:32.730Z,89566.00
2023-01-13T01:52:06.820Z,89569.66
2023-01-13T01:54:57.129Z,89570.16
2023-01-13T01:57:30.007Z,89574.28
2023-01-13T02:00:00.544Z,89576.81
2023-01-13T02:02:29.415Z,89577.22
2023-01-13T02:04:56.613Z,89570.50
2023-01-13T02:07:29.149Z,89576.19
2023-01-13T02:09:58.005Z,89568.53
2023-01-13T02:12:27.193Z,89560.59
2023-01-13T02:14:54.064Z,89556.81
2023-01-13T02:17:21.045Z,89561.22
2023-01-13T02:20:35.774Z,89561.72
2023-01-13T02:23:21.286Z,89556.50
2023-01-13T02:26:12.210Z,89555.97
2023-01-13T02:28:54.349Z,89558.00
2023-01-13T02:31:21.405Z,89559.97
2023-01-13T02:34:01.794Z,89555.88
2023-01-13T02:37:00.145Z,89556.56
2023-01-13T02:39:46.242Z,89546.22
2023-01-13T02:42:23.072Z,89553.28
2023-01-13T02:44:57.850Z,89555.81
2023-01-13T02:47:30.908Z,89554.00
2023-01-13T02:50:12.095Z,89562.13
2023-01-13T02:52:46.596Z,89562.72
2023-01-13T02:55:18.425Z,89557.97
2023-01-13T02:57:47.147Z,89553.84
2023-01-13T03:00:16.627Z,89562.22
2023-01-13T03:02:43.626Z,89560.81
2023-01-13T03:05:15.399Z,89560.91
2023-01-13T03:08:00.985Z,89555.66
2023-01-13T03:11:07.373Z,89554.50
2023-01-13T03:13:51.377Z,89561.88
2023-01-13T03:16:42.627Z,89546.31
2023-01-13T03:19:15.394Z,89547.63
2023-01-13T03:21:48.585Z,89550.41
2023-01-13T03:24:34.988Z,89557.53
2023-01-13T03:27:14.319Z,89556.50
2023-01-13T03:29:46.785Z,89567.94
2023-01-13T03:32:31.985Z,89569.88
2023-01-13T03:35:14.949Z,89566.59
2023-01-13T03:37:47.040Z,89566.69
2023-01-13T03:40:35.937Z,89566.44
2023-01-13T03:43:21.148Z,89575.16
2023-01-13T03:45:55.127Z,89569.03
2023-01-13T03:48:25.651Z,89577.28
2023-01-13T03:50:56.071Z,89570.09
2023-01-13T03:53:33.449Z,89574.66
2023-01-13T03:56:09.641Z,89573.66
2023-01-13T03:58:42.816Z,89571.06
2023-01-13T04:01:18.155Z,89577.03
2023-01-13T04:03:50.925Z,89588.50
2023-01-13T04:06:30.056Z,89580.22
2023-01-13T04:09:07.293Z,89576.88
2023-01-13T04:11:40.019Z,89584.66
2023-01-13T04:14:10.265Z,89579.44
2023-01-13T04:16:38.067Z,89583.38
2023-01-13T04:19:05.242Z,89590.22
2023-01-13T04:21:33.489Z,89584.56
2023-01-13T04:24:00.420Z,89591.47
2023-01-13T04:26:27.284Z,89586.63
2023-01-13T04:28:54.413Z,89594.16
2023-01-13T04:31:21.719Z,89596.63
2023-01-13T04:33:48.793Z,89596.22
2023-01-13T04:36:15.774Z,89610.22
2023-01-13T04:38:42.716Z,89614.66
2023-01-13T04:41:09.759Z,89604.66
2023-01-13T04:43:36.976Z,89608.28
2023-01-13T04:46:03.914Z,89612.38
2023-01-13T04:48:30.840Z,89606.13
2023-01-13T04:50:57.817Z,89610.72
2023-01-13T04:53:24.952Z,89611.28
2023-01-13T04:55:51.862Z,89616.63
2023-01-13T04:58:21.672Z,89614.75
2023-01-13T05:00:50.955Z,89611.69
2023-01-13T05:03:17.920Z,89616.38
2023-01-13T05:05:44.930Z,89620.03
2023-01-13T05:08:12.183Z,89609.59
2023-01-13T05:10:39.177Z,89606.94
2023-01-13T05:13:06.156Z,89616.81
2023-01-13T05:15:33.217Z,89614.59
2023-01-13T05:18:01.621Z,89608.81
2023-01-13T05:20:28.579Z,89617.28
2023-01-13T05:22:55.557Z,89614.66
2023-01-13T05:25:23.050Z,89608.63
2023-01-13T05:27:50.761Z,89612.31
2023-01-13T05:30:18.217Z,89613.41
2023-01-13T05:32:45.115Z,89613.47
2023-01-13T05:35:12.107Z,89615.03
2023-01-13T05:37:38.957Z,89615.41
2023-01-13T05:40:06.642Z,89623.50
2023-01-13T05:42:33.625Z,89616.13
2023-01-13T05:45:00.487Z,89620.72
2023-01-13T05:47:27.487Z,89630.38
2023-01-13T05:49:54.341Z,89625.56
2023-01-13T05:52:21.323Z,89623.38
2023-01-13T05:54:48.113Z,89623.97
2023-01-13T05:57:15.084Z,89623.22
2023-01-13T05:59:44.268Z,89627.00
2023-01-13T06:02:11.169Z,89628.41
2023-01-13T06:04:38.087Z,89628.81
2023-01-13T06:07:05.348Z,89628.72
2023-01-13T06:09:32.223Z,89627.78
2023-01-13T06:11:59.081Z,89638.44
2023-01-13T06:14:26.003Z,89635.06
2023-01-13T06:16:52.913Z,89623.44
2023-01-13T06:19:19.786Z,89629.84
2023-01-13T06:21:46.675Z,89636.72
2023-01-13T06:24:13.592Z,89636.38
2023-01-13T06:26:41.551Z,89641.63
2023-01-13T06:29:08.401Z,89637.63
2023-01-13T06:31:39.370Z,89641.09
2023-01-13T06:34:09.951Z,89652.66
2023-01-13T06:36:41.672Z,89654.75
2023-01-13T06:39:11.528Z,89655.59
2023-01-13T06:41:38.698Z,89659.72
2023-01-13T06:44:05.943Z,89661.69
2023-01-13T06:46:33.134Z,89664.78
2023-01-13T06:49:00.119Z,89654.16
2023-01-13T06:51:27.246Z,89654.38
2023-01-13T06:53:54.165Z,89654.06
2023-01-13T06:56:21.192Z,89663.44
2023-01-13T06:58:48.117Z,89664.38
2023-01-13T07:01:15.133Z,89667.84
2023-01-13T07:03:42.208Z,89666.69
2023-01-13T07:06:09.061Z,89664.38
2023-01-13T07:08:36.096Z,89664.16
2023-01-13T07:11:03.386Z,89672.38
2023-01-13T07:13:30.371Z,89677.31
2023-01-13T07:15:59.343Z,89677.50
2023-01-13T07:18:27.914Z,89672.81
2023-01-13T07:20:56.608Z,89674.28
2023-01-13T07:23:23.888Z,89667.06
2023-01-13T07:25:50.886Z,89666.88
2023-01-13T07:28:17.792Z,89670.25
2023-01-13T07:30:44.890Z,89670.03
2023-01-13T07:33:11.877Z,89671.88
2023-01-13T07:35:38.788Z,89666.16
2023-01-13T07:38:05.756Z,89674.94
2023-01-13T07:40:32.668Z,89677.34
2023-01-13T07:42:59.642Z,89685.25
2023-01-13T07:45:26.721Z,89678.13
2023-01-13T07:47:53.756Z,89680.69
2023-01-13T07:50:20.914Z,89678.66
2023-01-13T07:52:47.761Z,89673.94
2023-01-13T07:55:14.796Z,89681.78
2023-01-13T07:57:41.633Z,89685.28
2023-01-13T08:00:11.434Z,89685.06
2023-01-13T08:02:39.783Z,89683.25
2023-01-13T08:05:07.223Z,89681.00
2023-01-13T08:07:34.213Z,89682.28
2023-01-13T08:10:01.328Z,89680.94
2023-01-13T08:12:29.222Z,89682.88
2023-01-13T08:14:56.272Z,89686.03
2023-01-13T08:17:23.119Z,89682.34
2023-01-13T08:19:50.306Z,89674.56
2023-01-13T08:22:17.219Z,89673.25
2023-01-13T08:24:44.173Z,89674.81
2023-01-13T08:27:11.099Z,89671.22
2023-01-13T08:29:38.041Z,89669.03
2023-01-13T08:32:05.185Z,89659.91
2023-01-13T08:34:32.059Z,89662.25
2023-01-13T08:36:58.918Z,89656.34
2023-01-13T08:39:25.728Z,89665.31
2023-01-13T08:41:52.790Z,89658.03
2023-01-13T08:44:19.777Z,89655.13
2023-01-13T08:46:46.743Z,89656.47
2023-01-13T08:49:13.687Z,89659.38
2023-01-13T08:51:40.614Z,89650.22
2023-01-13T08:54:07.619Z,89652.84
2023-01-13T08:56:35.637Z,89651.03
2023-01-13T08:59:03.150Z,89650.78
2023-01-13T09:01:30.229Z,89644.03
2023-01-13T09:03:57.293Z,89649.91
2023-01-13T09:06:24.308Z,89639.03
2023-01-13T09:08:51.269Z,89633.31
2023-01-13T09:11:29.453Z,89626.25
2023-01-13T09:13:56.431Z,89624.75
2023-01-13T09:16:23.495Z,89605.94
2023-01-13T09:18:50.364Z,89624.16
2023-01-13T09:21:18.428Z,89622.13
2023-01-13T09:23:45.442Z,89617.16
2023-01-13T09:26:21.479Z,89614.44
2023-01-13T09:28:48.532Z,89608.28
2023-01-13T09:31:15.558Z,89606.47
2023-01-13T09:33:42.436Z,89607.91
2023-01-13T09:36:09.351Z,89605.78
2023-01-13T09:38:36.366Z,89601.50
2023-01-13T09:41:03.530Z,89592.56
2023-01-13T09:43:38.271Z,89593.84
2023-01-13T09:46:18.551Z,89596.59
2023-01-13T09:48:45.721Z,89586.16
2023-01-13T09:51:28.202Z,89588.22
2023-01-13T09:54:00.814Z,89592.50
2023-01-13T09:56:27.799Z,89591.69
2023-01-13T09:58:54.741Z,89587.31
2023-01-13T10:01:27.181Z,89584.06
2023-01-13T10:03:54.426Z,89580.69
2023-01-13T10:06:30.642Z,89584.31
2023-01-13T10:08:58.206Z,89577.41
2023-01-13T10:11:26.043Z,89581.91
2023-01-13T10:13:58.272Z,89578.63
2023-01-13T10:16:40.917Z,89570.28
2023-01-13T10:19:26.054Z,89579.25
2023-01-13T10:22:01.878Z,89571.38
2023-01-13T10:24:49.617Z,89565.53
2023-01-13T10:27:33.784Z,89570.00
2023-01-13T10:30:21.628Z,89561.88
2023-01-13T10:32:56.741Z,89560.22
2023-01-13T10:35:53.255Z,89557.44
2023-01-13T10:38:30.882Z,89562.28
2023-01-13T10:41:03.666Z,89557.31
2023-01-13T10:43:31.515Z,89556.56
2023-01-13T10:46:07.388Z,89552.09
2023-01-13T10:48:38.513Z,89548.56
2023-01-13T10:51:14.395Z,89549.13
2023-01-13T10:53:59.653Z,89539.09
2023-01-13T10:56:34.225Z,89543.41
2023-01-13T10:59:26.269Z,89531.16
2023-01-13T11:02:01.224Z,89531.13
2023-01-13T11:04:31.318Z,89537.75
2023-01-13T11:06:59.622Z,89528.53
2023-01-13T11:09:27.805Z,89538.59
2023-01-13T11:11:56.678Z,89533.69
2023-01-13T11:14:26.531Z,89540.66
2023-01-13T11:16:58.287Z,89536.78
2023-01-13T11:19:29.085Z,89536.06
2023-01-13T11:22:04.747Z,89534.34
2023-01-13T11:24:54.436Z,89536.19
2023-01-13T11:27:44.233Z,89531.75
2023-01-13T11:30:26.486Z,89535.28
2023-01-13T11:33:00.449Z,89529.63
2023-01-13T11:35:29.753Z,89534.31
2023-01-13T11:38:08.993Z,89527.91
2023-01-13T11:40:46.924Z,89532.06
2023-01-13T11:43:40.039Z,89530.00
2023-01-13T11:46:09.028Z,89533.97
2023-01-13T11:48:40.782Z,89528.94
2023-01-13T11:51:13.667Z,89528.63
2023-01-13T11:53:46.578Z,89527.38
2023-01-13T11:56:56.008Z,89529.44
2023-01-13T11:59:43.345Z,89530.88
2023-01-13T12:02:25.389Z,89530.41
2023-01-13T12:05:23.934Z,89526.88
2023-01-13T12:08:18.848Z,89520.50
2023-01-13T12:11:07.115Z,89526.78
2023-01-13T12:13:52.392Z,89533.44
2023-01-13T12:16:32.190Z,89528.19
2023-01-13T12:19:19.235Z,89524.63
2023-01-13T12:22:04.936Z,89538.44
2023-01-13T12:24:44.715Z,89536.81
2023-01-13T12:27:32.666Z,89536.88
2023-01-13T12:30:03.416Z,89535.22
2023-01-13T12:32:38.130Z,89536.16
2023-01-13T12:35:23.667Z,89544.91
2023-01-13T12:37:53.343Z,89539.44
2023-01-13T12:40:48.692Z,89540.84
2023-01-13T12:43:17.631Z,89545.25
2023-01-13T12:45:44.643Z,89544.91
2023-01-13T12:48:48.696Z,89547.56
2023-01-13T12:51:31.168Z,89542.38
2023-01-13T12:53:58.395Z,89550.66
2023-01-13T12:56:28.435Z,89546.94
2023-01-13T12:59:17.221Z,89555.16
2023-01-13T13:01:46.422Z,89557.06
2023-01-13T13:04:20.778Z,89552.69
2023-01-13T13:07:03.444Z,89551.28
2023-01-13T13:09:39.848Z,89547.34
2023-01-13T13:12:31.502Z,89547.34
2023-01-13T13:14:58.329Z,89551.16
2023-01-13T13:17:31.510Z,89552.50
2023-01-13T13:20:00.258Z,89552.47
2023-01-13T13:22:27.251Z,89552.78
2023-01-13T13:24:57.023Z,89546.91
2023-01-13T13:27:39.185Z,89549.59
2023-01-13T13:30:28.815Z,89552.34
2023-01-13T13:33:12.784Z,89562.44
2023-01-13T13:36:01.227Z,89559.94
2023-01-13T13:38:37.073Z,89558.50
2023-01-13T13:43:46.513Z,89573.09
2023-01-13T13:46:34.655Z,89571.91
2023-01-13T13:49:02.379Z,89567.50
2023-01-13T13:51:40.082Z,89578.34
2023-01-13T13:54:15.638Z,89565.88
2023-01-13T13:56:47.201Z,89561.59
2023-01-13T13:59:25.485Z,89570.09
2023-01-13T14:02:01.929Z,89578.34
2023-01-13T14:04:36.559Z,89576.72
2023-01-13T14:07:21.439Z,89578.94
2023-01-13T14:09:51.832Z,89570.44
2023-01-13T14:12:25.676Z,89576.56
2023-01-13T14:14:57.225Z,89593.44
2023-01-13T14:17:30.682Z,89570.81
2023-01-13T14:20:34.087Z,89589.16
2023-01-13T14:23:17.839Z,89585.34
2023-01-13T14:25:56.521Z,89578.28
2023-01-13T14:28:48.919Z,89584.69
2023-01-13T14:31:17.048Z,89591.59
2023-01-13T14:33:48.687Z,89575.88
2023-01-13T14:36:24.160Z,89581.13
2023-01-13T14:39:10.950Z,89578.72
2023-01-13T14:41:45.600Z,89587.94
2023-01-13T14:44:32.277Z,89588.63
2023-01-13T14:47:03.128Z,89582.03
2023-01-13T14:50:03.981Z,89587.81
2023-01-13T14:52:34.231Z,89600.09
2023-01-13T14:55:06.790Z,89594.41
2023-01-13T14:57:35.303Z,89597.41
2023-01-13T15:00:14.484Z,89599.00
2023-01-13T15:02:46.740Z,89592.78
2023-01-13T15:05:19.460Z,89606.50
2023-01-13T15:07:58.225Z,89604.91
2023-01-13T15:10:31.440Z,89607.22
2023-01-13T15:13:03.222Z,89611.41
2023-01-13T15:15:31.865Z,89609.19
2023-01-13T15:18:02.244Z,89610.91
2023-01-13T15:20:29.368Z,89623.34
2023-01-13T15:22:56.816Z,89612.38
2023-01-13T15:25:24.785Z,89623.56
2023-01-13T15:27:53.195Z,89630.25
2023-01-13T15:30:27.923Z,89622.69
2023-01-13T15:33:01.199Z,89627.72
2023-01-13T15:35:29.358Z,89641.94
2023-01-13T15:37:58.859Z,89633.66
2023-01-13T15:40:31.483Z,89635.03
2023-01-13T15:42:59.014Z,89629.03
2023-01-13T15:45:27.167Z,89643.81
2023-01-13T15:47:54.202Z,89644.84
2023-01-13T15:50:21.131Z,89644.03
2023-01-13T15:52:48.603Z,89645.19
2023-01-13T15:55:21.791Z,89641.81
2023-01-13T15:57:50.517Z,89646.34
2023-01-13T16:00:23.365Z,89646.66
2023-01-13T16:02:51.120Z,89640.78
2023-01-13T16:05:21.408Z,89653.19
2023-01-13T16:07:48.364Z,89653.44
2023-01-13T16:10:19.740Z,89654.78
2023-01-13T16:12:46.784Z,89648.91
2023-01-13T16:15:15.348Z,89654.47
2023-01-13T16:17:44.947Z,89655.00
2023-01-13T16:20:17.500Z,89650.81
2023-01-13T16:22:45.474Z,89664.16
2023-01-13T16:25:23.018Z,89650.78
2023-01-13T16:27:51.070Z,89666.16
2023-01-13T16:30:41.163Z,89658.06
2023-01-13T16:33:08.073Z,89666.59
2023-01-13T16:35:35.230Z,89651.53
2023-01-13T16:38:02.511Z,89652.19
2023-01-13T16:40:31.889Z,89650.06
2023-01-13T16:43:00.541Z,89650.59
2023-01-13T16:45:27.994Z,89657.63
2023-01-13T16:48:01.316Z,89659.53
2023-01-13T16:50:40.741Z,89656.91
2023-01-13T16:53:11.153Z,89659.44
2023-01-13T16:55:39.818Z,89668.69
2023-01-13T16:58:17.412Z,89661.22
2023-01-13T17:00:45.194Z,89666.38
2023-01-13T17:03:12.131Z,89653.75
2023-01-13T17:05:44.901Z,89655.22
2023-01-13T17:08:17.777Z,89661.75
2023-01-13T17:10:45.867Z,89663.84
2023-01-13T17:13:16.404Z,89658.78
2023-01-13T17:15:44.274Z,89646.78
2023-01-13T17:18:11.099Z,89653.44
2023-01-13T17:20:40.271Z,89651.22
2023-01-13T17:23:07.153Z,89653.13
2023-01-13T17:25:34.254Z,89663.41
2023-01-13T17:28:01.250Z,89673.94
2023-01-13T17:30:28.189Z,89657.09
2023-01-13T17:32:57.943Z,89661.53
2023-01-13T17:35:26.236Z,89663.63
2023-01-13T17:38:01.057Z,89652.25
2023-01-13T17:40:27.962Z,89658.69
2023-01-13T17:42:54.869Z,89657.84
2023-01-13T17:45:21.779Z,89655.13
2023-01-13T17:47:48.753Z,89659.03
2023-01-13T17:50:17.549Z,89660.78
2023-01-13T17:52:44.497Z,89661.53
2023-01-13T17:55:12.666Z,89665.09
2023-01-13T17:57:39.542Z,89663.97
2023-01-13T18:00:07.137Z,89660.06
2023-01-13T18:02:37.400Z,89671.31
2023-01-13T18:05:04.598Z,89667.00
2023-01-13T18:07:31.606Z,89667.88
2023-01-13T18:09:58.622Z,89669.94
2023-01-13T18:12:25.586Z,89669.84
2023-01-13T18:14:52.605Z,89668.06
2023-01-13T18:17:19.462Z,89674.69
2023-01-13T18:19:48.165Z,89673.44
2023-01-13T18:22:15.086Z,89671.53
2023-01-13T18:24:42.156Z,89673.09
2023-01-13T18:27:12.398Z,89672.03
2023-01-13T18:29:39.416Z,89673.91
2023-01-13T18:32:06.756Z,89668.09
2023-01-13T18:34:33.750Z,89672.31
2023-01-13T18:37:00.600Z,89664.97
2023-01-13T18:39:27.810Z,89670.31
2023-01-13T18:41:57.571Z,89663.97
2023-01-13T18:44:24.357Z,89669.03
2023-01-13T18:46:51.231Z,89666.84
2023-01-13T18:49:18.312Z,89666.03
2023-01-13T18:51:45.163Z,89664.72
2023-01-13T18:54:11.991Z,89677.53
2023-01-13T18:56:38.991Z,89676.22
2023-01-13T18:59:05.847Z,89675.28
2023-01-13T19:01:32.950Z,89674.75
2023-01-13T19:04:02.131Z,89681.66
2023-01-13T19:06:32.258Z,89678.19
2023-01-13T19:09:00.559Z,89684.59
2023-01-13T19:11:28.276Z,89677.66
2023-01-13T19:13:57.444Z,89676.31
2023-01-13T19:16:24.435Z,89670.34
2023-01-13T19:18:51.377Z,89682.09
2023-01-13T19:21:18.358Z,89675.41
2023-01-13T19:23:45.376Z,89687.06
2023-01-13T19:26:13.222Z,89687.09
2023-01-13T19:28:40.769Z,89691.53
2023-01-13T19:31:10.748Z,89687.94
2023-01-13T19:33:40.270Z,89679.38
2023-01-13T19:36:08.211Z,89694.00
2023-01-13T19:38:37.177Z,89685.31
2023-01-13T19:41:06.482Z,89679.84
2023-01-13T19:43:33.448Z,89688.75
2023-01-13T19:46:00.468Z,89687.78
2023-01-13T19:48:27.548Z,89681.88
2023-01-13T19:50:54.590Z,89677.72
2023-01-13T19:53:22.643Z,89686.69
2023-01-13T19:55:51.812Z,89681.72
2023-01-13T19:58:19.216Z,89702.63
2023-01-13T20:00:46.888Z,89684.81
2023-01-13T20:03:18.509Z,89685.06
2023-01-13T20:05:45.349Z,89689.09
2023-01-13T20:08:12.725Z,89690.41
2023-01-13T20:10:42.860Z,89679.97
2023-01-13T20:13:09.919Z,89693.19
2023-01-13T20:15:38.668Z,89690.03
2023-01-13T20:18:08.800Z,89691.72
2023-01-13T20:20:38.610Z,89685.50
2023-01-13T20:23:09.772Z,89692.91
2023-01-13T20:25:36.720Z,89696.31
2023-01-13T20:28:03.975Z,89694.81
2023-01-13T20:30:30.915Z,89698.66
2023-01-13T20:32:57.842Z,89697.50
2023-01-13T20:35:27.561Z,89700.38
2023-01-13T20:37:57.261Z,89706.81
2023-01-13T20:40:24.323Z,89705.81
2023-01-13T20:42:51.263Z,89709.28
2023-01-13T20:45:20.328Z,89713.03
2023-01-13T20:47:47.807Z,89695.16
2023-01-13T20:50:16.305Z,89695.50
2023-01-13T20:52:47.025Z,89697.56
2023-01-13T20:55:16.752Z,89700.50
2023-01-13T20:57:43.710Z,89698.44
2023-01-13T21:00:12.890Z,89706.63
2023-01-13T21:02:40.424Z,89704.84
2023-01-13T21:05:07.594Z,89700.34
2023-01-13T21:07:34.539Z,89700.00
2023-01-13T21:10:01.565Z,89696.19
2023-01-13T21:12:28.600Z,89692.53
2023-01-13T21:14:55.556Z,89694.34
2023-01-13T21:17:23.029Z,89695.81
2023-01-13T21:19:50.617Z,89701.72
2023-01-13T21:22:17.610Z,89698.94
2023-01-13T21:24:44.500Z,89702.09
2023-01-13T21:27:11.509Z,89688.03
2023-01-13T21:29:38.541Z,89698.19
2023-01-13T21:32:05.857Z,89692.16
2023-01-13T21:34:32.910Z,89686.03
2023-01-13T21:36:59.873Z,89694.34
2023-01-13T21:39:27.104Z,89690.56
2023-01-13T21:41:54.493Z,89701.16
2023-01-13T21:44:21.925Z,89689.16
2023-01-13T21:46:48.789Z,89688.53
2023-01-13T21:49:15.680Z,89682.75
2023-01-13T21:51:44.885Z,89682.72
2023-01-13T21:54:11.851Z,89675.59
2023-01-13T21:56:38.749Z,89676.63
2023-01-13T21:59:05.599Z,89667.22
2023-01-13T22:01:32.659Z,89668.13
2023-01-13T22:03:59.864Z,89665.91
2023-01-13T22:06:27.532Z,89665.50
2023-01-13T22:08:58.506Z,89668.75
2023-01-13T22:11:25.622Z,89669.78
2023-01-13T22:13:52.585Z,89663.28
2023-01-13T22:16:19.623Z,89662.31
2023-01-13T22:18:46.588Z,89667.75
2023-01-13T22:21:13.679Z,89664.50
2023-01-13T22:23:40.676Z,89670.06
2023-01-13T22:26:09.041Z,89671.78
2023-01-13T22:28:36.791Z,89659.63
2023-01-13T22:31:08.073Z,89658.06
2023-01-13T22:33:35.232Z,89666.63
2023-01-13T22:36:02.100Z,89670.50
2023-01-13T22:38:29.366Z,89667.25
2023-01-13T22:40:58.411Z,89664.78
2023-01-13T22:43:25.399Z,89663.00
2023-01-13T22:46:03.421Z,89666.13
2023-01-13T22:48:30.629Z,89660.78
2023-01-13T22:50:57.484Z,89667.13
2023-01-13T22:53:24.371Z,89668.69
2023-01-13T22:55:58.437Z,89672.78
2023-01-13T22:58:26.330Z,89667.94
2023-01-13T23:00:53.568Z,89662.03
2023-01-13T23:03:20.448Z,89667.28
2023-01-13T23:05:47.531Z,89674.50
2023-01-13T23:08:14.869Z,89666.47
2023-01-13T23:10:41.938Z,89673.03
2023-01-13T23:13:09.305Z,89661.88
2023-01-13T23:15:36.320Z,89671.88
2023-01-13T23:18:03.235Z,89665.50
2023-01-13T23:20:30.887Z,89671.88
2023-01-13T23:22:57.927Z,89659.38
2023-01-13T23:25:25.793Z,89662.34
2023-01-13T23:27:53.833Z,89662.28
2023-01-13T23:30:20.841Z,89676.06
2023-01-13T23:32:47.777Z,89669.06
2023-01-13T23:35:14.971Z,89667.91
2023-01-13T23:37:41.899Z,89677.56
2023-01-13T23:40:09.627Z,89671.53
2023-01-13T23:42:36.746Z,89673.16
2023-01-13T23:45:04.183Z,89679.59
2023-01-13T23:47:31.009Z,89682.53
2023-01-13T23:49:57.881Z,89677.38
2023-01-13T23:52:24.770Z,89676.28
2023-01-13T23:54:51.781Z,89676.84
2023-01-13T23:57:18.932Z,89672.88
2023-01-13T23:59:45.894Z,89678.28
